createdAt,value
2023-01-21T00:00:58.349Z,82.43
2023-01-21T00:03:26.458Z,83.20
2023-01-21T00:05:54.633Z,78.13
2023-01-21T00:08:22.653Z,76.78
2023-01-21T00:10:50.977Z,88.53
2023-01-21T00:13:20.359Z,80.88
2023-01-21T00:15:48.390Z,82.78
2023-01-21T00:18:16.578Z,83.25
2023-01-21T00:20:46.021Z,79.45
2023-01-21T00:23:14.058Z,82.63
2023-01-21T00:25:42.064Z,88.50
2023-01-21T00:28:10.103Z,86.43
2023-01-21T00:30:39.594Z,89.88
2023-01-21T00:33:07.563Z,80.43
2023-01-21T00:35:35.535Z,86.55
2023-01-21T00:38:03.556Z,82.55
2023-01-21T00:40:31.545Z,84.97
2023-01-21T00:42:59.546Z,79.20
2023-01-21T00:45:27.563Z,80.47
2023-01-21T00:47:57.014Z,79.25
2023-01-21T00:50:25.008Z,78.10
2023-01-21T00:52:53.996Z,78.28
2023-01-21T00:55:21.985Z,79.43
2023-01-21T00:57:50.690Z,77.13
2023-01-21T01:00:19.857Z,77.20
2023-01-21T01:02:48.002Z,76.28
2023-01-21T01:05:19.397Z,81.13
2023-01-21T01:07:47.643Z,87.37
2023-01-21T01:10:16.132Z,81.30
2023-01-21T01:12:44.453Z,91.05
2023-01-21T01:15:12.763Z,86.45
2023-01-21T01:17:40.812Z,89.32
2023-01-21T01:20:10.152Z,99.80
2023-01-21T01:22:39.539Z,91.88
2023-01-21T01:25:08.244Z,100.30
2023-01-21T01:27:36.515Z,106.47
2023-01-21T01:30:05.848Z,104.32
2023-01-21T01:32:33.867Z,108.63
2023-01-21T01:35:01.909Z,107.18
2023-01-21T01:37:30.014Z,109.43
2023-01-21T01:39:59.375Z,108.97
2023-01-21T01:42:27.352Z,106.30
2023-01-21T01:45:00.604Z,105.53
2023-01-21T01:47:33.547Z,107.68
2023-01-21T01:50:03.423Z,121.85
2023-01-21T01:52:31.936Z,116.50
2023-01-21T01:55:03.236Z,114.63
2023-01-21T01:57:37.148Z,119.50
2023-01-21T02:00:08.833Z,115.32
2023-01-21T02:02:38.503Z,115.60
2023-01-21T02:05:09.341Z,116.45
2023-01-21T02:07:40.504Z,122.72
2023-01-21T02:10:12.345Z,125.07
2023-01-21T02:12:44.008Z,116.50
2023-01-21T02:15:13.216Z,114.47
2023-01-21T02:17:52.335Z,116.22
2023-01-21T02:20:48.903Z,119.53
2023-01-21T02:23:21.670Z,124.88
2023-01-21T02:26:18.172Z,120.65
2023-01-21T02:29:12.876Z,124.82
2023-01-21T02:32:13.705Z,133.45
2023-01-21T02:34:49.825Z,135.20
2023-01-21T02:37:25.887Z,131.93
2023-01-21T02:40:10.841Z,126.47
2023-01-21T02:42:46.036Z,127.35
2023-01-21T02:45:25.082Z,133.85
2023-01-21T02:48:06.007Z,127.25
2023-01-21T02:50:37.775Z,119.15
2023-01-21T02:53:06.455Z,132.35
2023-01-21T02:55:38.086Z,134.23
2023-01-21T02:58:08.977Z,124.20
2023-01-21T03:00:56.828Z,131.02
2023-01-21T03:03:43.391Z,125.55
2023-01-21T03:06:50.095Z,130.27
2023-01-21T03:09:35.942Z,126.25
2023-01-21T03:12:18.722Z,132.00
2023-01-21T03:15:09.905Z,136.15
2023-01-21T03:17:43.289Z,134.63
2023-01-21T03:20:16.045Z,134.52
2023-01-21T03:22:45.369Z,133.13
2023-01-21T03:25:16.970Z,126.10
2023-01-21T03:27:47.556Z,133.38
2023-01-21T03:30:18.378Z,125.63
2023-01-21T03:32:50.342Z,126.68
2023-01-21T03:35:22.661Z,127.60
2023-01-21T03:37:55.015Z,120.35
2023-01-21T03:40:27.476Z,120.70
2023-01-21T03:42:56.630Z,130.38
2023-01-21T03:45:36.300Z,122.68
2023-01-21T03:48:11.791Z,114.18
2023-01-21T03:50:43.223Z,118.45
2023-01-21T03:53:12.154Z,117.40
2023-01-21T03:55:41.661Z,115.53
2023-01-21T03:58:09.707Z,119.97
2023-01-21T04:00:37.929Z,123.97
2023-01-21T04:03:05.941Z,114.88
2023-01-21T04:05:35.368Z,117.20
2023-01-21T04:08:03.478Z,113.82
2023-01-21T04:10:31.493Z,112.00
2023-01-21T04:13:00.887Z,116.03
2023-01-21T04:15:28.978Z,124.30
2023-01-21T04:17:56.979Z,118.43
2023-01-21T04:20:24.947Z,116.03
2023-01-21T04:22:53.034Z,123.50
2023-01-21T04:25:21.080Z,118.93
2023-01-21T04:27:49.048Z,116.68
2023-01-21T04:30:19.276Z,110.18
2023-01-21T04:32:47.527Z,122.07
2023-01-21T04:35:15.643Z,112.20
2023-01-21T04:37:43.775Z,115.35
2023-01-21T04:40:13.434Z,111.47
2023-01-21T04:42:43.077Z,112.22
2023-01-21T04:45:11.967Z,112.15
2023-01-21T04:47:43.544Z,111.38
2023-01-21T04:50:13.031Z,109.25
2023-01-21T04:52:41.568Z,112.22
2023-01-21T04:55:10.884Z,102.18
2023-01-21T04:57:39.157Z,105.00
2023-01-21T05:00:09.578Z,111.32
2023-01-21T05:02:37.685Z,108.13
2023-01-21T05:05:08.201Z,116.05
2023-01-21T05:07:36.664Z,113.93
2023-01-21T05:10:05.424Z,107.15
2023-01-21T05:12:33.463Z,109.57
2023-01-21T05:15:01.447Z,113.05
2023-01-21T05:17:29.433Z,107.15
2023-01-21T05:19:57.453Z,109.55
2023-01-21T05:22:26.831Z,108.00
2023-01-21T05:24:54.889Z,123.38
2023-01-21T05:27:22.934Z,115.43
2023-01-21T05:29:51.076Z,111.63
2023-01-21T05:32:19.134Z,106.78
2023-01-21T05:34:47.157Z,108.13
2023-01-21T05:37:15.300Z,105.90
2023-01-21T05:39:44.712Z,112.72
2023-01-21T05:42:12.781Z,105.40
2023-01-21T05:44:40.764Z,107.43
2023-01-21T05:47:08.850Z,106.68
2023-01-21T05:49:37.207Z,111.93
2023-01-21T05:52:05.536Z,109.22
2023-01-21T05:54:33.474Z,107.22
2023-01-21T05:57:02.864Z,108.95
2023-01-21T05:59:30.885Z,111.95
2023-01-21T06:01:58.907Z,110.93
2023-01-21T06:04:30.622Z,104.95
2023-01-21T06:06:58.685Z,105.50
2023-01-21T06:09:26.673Z,107.15
2023-01-21T06:11:54.678Z,110.60
2023-01-21T06:14:24.677Z,102.95
2023-01-21T06:16:52.732Z,110.80
2023-01-21T06:19:20.761Z,110.20
2023-01-21T06:21:48.872Z,107.68
2023-01-21T06:24:16.959Z,112.47
2023-01-21T06:26:45.200Z,114.60
2023-01-21T06:29:13.269Z,108.43
2023-01-21T06:31:42.732Z,120.82
2023-01-21T06:34:12.593Z,113.10
2023-01-21T06:36:42.730Z,115.63
2023-01-21T06:39:11.054Z,111.47
2023-01-21T06:41:39.138Z,109.72
2023-01-21T06:44:07.632Z,114.13
2023-01-21T06:46:35.714Z,117.18
2023-01-21T06:49:05.297Z,124.13
2023-01-21T06:51:33.255Z,124.10
2023-01-21T06:54:01.234Z,133.38
2023-01-21T06:56:29.229Z,120.70
2023-01-21T06:58:57.201Z,120.65
2023-01-21T07:01:25.275Z,128.38
2023-01-21T07:03:53.341Z,127.00
2023-01-21T07:06:23.131Z,132.05
2023-01-21T07:08:51.101Z,125.47
2023-01-21T07:11:19.310Z,121.28
2023-01-21T07:13:47.284Z,124.70
2023-01-21T07:16:15.308Z,133.88
2023-01-21T07:18:43.366Z,123.40
2023-01-21T07:21:11.348Z,122.13
2023-01-21T07:23:40.689Z,122.28
2023-01-21T07:26:08.717Z,120.10
2023-01-21T07:28:36.719Z,120.30
2023-01-21T07:31:05.408Z,120.80
2023-01-21T07:33:33.439Z,132.00
2023-01-21T07:36:01.408Z,125.38
2023-01-21T07:38:29.410Z,124.30
2023-01-21T07:40:58.989Z,124.00
2023-01-21T07:43:28.107Z,121.47
2023-01-21T07:45:59.875Z,120.97
2023-01-21T07:48:28.045Z,129.45
2023-01-21T07:50:58.609Z,136.98
2023-01-21T07:53:27.105Z,123.82
2023-01-21T07:55:55.711Z,127.75
2023-01-21T07:58:25.081Z,129.13
2023-01-21T08:00:53.148Z,122.85
2023-01-21T08:03:23.225Z,129.05
2023-01-21T08:05:52.205Z,126.20
2023-01-21T08:08:20.316Z,121.28
2023-01-21T08:10:52.745Z,127.57
2023-01-21T08:13:21.035Z,128.35
2023-01-21T08:15:53.100Z,126.32
2023-01-21T08:18:23.119Z,133.60
2023-01-21T08:20:55.537Z,140.10
2023-01-21T08:23:23.536Z,145.50
2023-01-21T08:25:51.704Z,128.55
2023-01-21T08:28:19.824Z,140.23
2023-01-21T08:30:47.828Z,143.18
2023-01-21T08:33:17.177Z,141.93
2023-01-21T08:35:45.226Z,146.60
2023-01-21T08:38:13.246Z,138.55
2023-01-21T08:40:41.279Z,153.02
2023-01-21T08:43:10.420Z,155.50
2023-01-21T08:45:38.436Z,158.02
2023-01-21T08:48:06.948Z,159.68
2023-01-21T08:50:36.464Z,158.68
2023-01-21T08:53:04.420Z,158.35
2023-01-21T08:55:32.416Z,169.38
2023-01-21T08:58:00.467Z,171.48
2023-01-21T09:00:28.786Z,182.65
2023-01-21T09:02:56.945Z,177.27
2023-01-21T09:05:24.988Z,183.48
2023-01-21T09:07:55.685Z,176.77
2023-01-21T09:10:44.301Z,177.75
2023-01-21T09:13:12.480Z,178.43
2023-01-21T09:15:40.966Z,178.98
2023-01-21T09:18:09.420Z,182.98
2023-01-21T09:20:37.576Z,171.27
2023-01-21T09:23:24.285Z,181.63
2023-01-21T09:25:53.342Z,177.32
2023-01-21T09:28:23.119Z,191.70
2023-01-21T09:30:51.264Z,201.32
2023-01-21T09:33:19.376Z,199.88
2023-01-21T09:35:54.356Z,217.73
2023-01-21T09:38:23.932Z,212.50
2023-01-21T09:40:52.503Z,221.85
2023-01-21T09:43:25.135Z,229.43
2023-01-21T09:45:57.370Z,238.48
2023-01-21T09:51:01.222Z,222.95
2023-01-21T09:53:37.548Z,226.05
2023-01-21T09:56:11.935Z,233.52
2023-01-21T09:58:45.199Z,243.65
2023-01-21T10:01:16.776Z,246.55
2023-01-21T10:03:49.749Z,255.13
2023-01-21T10:06:23.552Z,251.88
2023-01-21T10:09:25.551Z,256.35
2023-01-21T10:12:09.422Z,255.68
2023-01-21T10:15:15.554Z,258.45
2023-01-21T10:17:55.407Z,259.92
2023-01-21T10:20:27.805Z,266.25
2023-01-21T10:22:59.470Z,265.40
2023-01-21T10:25:32.067Z,263.88
2023-01-21T10:28:05.377Z,264.58
2023-01-21T10:30:37.694Z,263.58
2023-01-21T10:33:07.212Z,262.55
2023-01-21T10:35:47.663Z,264.05
2023-01-21T10:38:25.851Z,267.23
2023-01-21T10:41:03.134Z,270.30
2023-01-21T10:43:37.618Z,274.05
2023-01-21T10:46:15.472Z,270.55
2023-01-21T10:48:51.610Z,269.92
2023-01-21T10:51:23.796Z,265.85
2023-01-21T10:53:57.604Z,260.23
2023-01-21T10:56:37.943Z,248.48
2023-01-21T10:59:09.091Z,239.10
2023-01-21T11:01:40.732Z,238.77
2023-01-21T11:04:15.432Z,241.48
2023-01-21T11:06:45.144Z,231.70
2023-01-21T11:09:15.465Z,217.82
2023-01-21T11:11:46.422Z,220.77
2023-01-21T11:14:14.835Z,208.85
2023-01-21T11:16:44.742Z,199.82
2023-01-21T11:19:15.204Z,195.80
2023-01-21T11:21:57.727Z,191.15
2023-01-21T11:26:58.064Z,163.65
2023-01-21T11:29:27.886Z,152.98
2023-01-21T11:32:04.381Z,142.48
2023-01-21T11:34:32.800Z,127.78
2023-01-21T11:37:02.708Z,115.78
2023-01-21T11:39:33.548Z,110.22
2023-01-21T11:42:08.728Z,99.57
2023-01-21T11:44:37.535Z,84.07
2023-01-21T11:47:36.548Z,71.75
2023-01-21T11:50:17.134Z,68.72
2023-01-21T11:52:45.802Z,62.45
2023-01-21T11:55:23.378Z,61.00
2023-01-21T11:57:55.968Z,60.30
2023-01-21T12:00:27.162Z,58.25
2023-01-21T12:02:59.535Z,54.28
2023-01-21T12:05:32.623Z,55.03
2023-01-21T12:08:01.880Z,61.97
2023-01-21T12:10:32.954Z,58.83
2023-01-21T12:13:18.699Z,59.03
2023-01-21T12:16:11.134Z,56.53
2023-01-21T12:18:54.586Z,54.88
2023-01-21T12:21:31.993Z,57.00
2023-01-21T12:24:14.348Z,57.65
2023-01-21T12:26:46.497Z,58.22
2023-01-21T12:29:31.268Z,52.00
2023-01-21T12:32:04.999Z,58.28
2023-01-21T12:34:38.193Z,57.42
2023-01-21T12:37:13.467Z,57.92
2023-01-21T12:39:43.416Z,54.63
2023-01-21T12:42:16.853Z,49.33
2023-01-21T12:44:51.662Z,52.70
2023-01-21T12:47:32.241Z,54.40
2023-01-21T12:50:10.744Z,53.30
2023-01-21T12:52:45.728Z,53.58
2023-01-21T12:55:20.854Z,49.75
2023-01-21T12:57:56.936Z,56.35
2023-01-21T13:00:28.392Z,51.10
2023-01-21T13:03:05.901Z,48.10
2023-01-21T13:05:39.249Z,52.60
2023-01-21T13:08:31.019Z,48.65
2023-01-21T13:11:04.500Z,55.50
2023-01-21T13:13:36.074Z,52.13
2023-01-21T13:16:09.116Z,52.72
2023-01-21T13:18:39.954Z,47.17
2023-01-21T13:21:17.913Z,53.55
2023-01-21T13:23:49.046Z,56.90
2023-01-21T13:26:23.025Z,56.20
2023-01-21T13:28:59.067Z,55.13
2023-01-21T13:31:35.525Z,56.75
2023-01-21T13:34:08.700Z,56.33
2023-01-21T13:36:51.167Z,51.17
2023-01-21T13:42:05.536Z,49.55
2023-01-21T13:45:05.412Z,47.25
2023-01-21T13:47:48.809Z,44.78
2023-01-21T13:50:29.532Z,45.10
2023-01-21T13:53:11.148Z,42.90
2023-01-21T13:55:47.539Z,40.13
2023-01-21T13:58:18.149Z,37.83
2023-01-21T14:00:52.322Z,39.13
2023-01-21T14:03:31.014Z,35.38
2023-01-21T14:06:06.084Z,39.03
2023-01-21T14:08:39.313Z,35.05
2023-01-21T14:11:13.594Z,41.17
2023-01-21T14:14:16.007Z,38.65
2023-01-21T14:17:05.672Z,37.95
2023-01-21T14:20:07.982Z,37.10
2023-01-21T14:22:50.318Z,33.90
2023-01-21T14:25:26.975Z,38.20
2023-01-21T14:28:06.863Z,37.85
2023-01-21T14:30:44.803Z,35.20
2023-01-21T14:33:17.944Z,34.90
2023-01-21T14:35:55.145Z,34.25
2023-01-21T14:38:34.061Z,34.50
2023-01-21T14:41:07.908Z,31.90
2023-01-21T14:43:53.568Z,31.00
2023-01-21T14:46:30.659Z,32.30
2023-01-21T14:49:04.283Z,34.45
2023-01-21T14:51:36.447Z,34.30
2023-01-21T14:54:10.345Z,36.05
2023-01-21T14:56:39.072Z,39.15
2023-01-21T14:59:09.805Z,35.72
2023-01-21T15:01:44.735Z,37.25
2023-01-21T15:04:26.572Z,36.03
2023-01-21T15:06:59.102Z,40.42
2023-01-21T15:09:31.244Z,38.10
2023-01-21T15:12:02.615Z,38.63
2023-01-21T15:14:33.878Z,37.00
2023-01-21T15:17:02.161Z,37.75
2023-01-21T15:19:33.846Z,41.25
2023-01-21T15:22:39.763Z,35.22
2023-01-21T15:25:36.967Z,36.92
2023-01-21T15:28:38.380Z,37.15
2023-01-21T15:31:09.442Z,39.05
2023-01-21T15:33:49.751Z,39.17
2023-01-21T15:36:24.487Z,35.60
2023-01-21T15:38:55.832Z,37.47
2023-01-21T15:41:28.987Z,37.45
2023-01-21T15:44:09.692Z,38.58
2023-01-21T15:46:46.909Z,36.95
2023-01-21T15:49:34.930Z,36.40
2023-01-21T15:52:15.354Z,35.63
2023-01-21T15:54:54.249Z,34.15
2023-01-21T15:57:44.152Z,35.42
2023-01-21T16:00:29.823Z,36.70
2023-01-21T16:03:04.937Z,41.28
2023-01-21T16:05:43.439Z,38.70
2023-01-21T16:08:22.080Z,35.55
2023-01-21T16:11:03.252Z,42.30
2023-01-21T16:13:44.517Z,38.75
2023-01-21T16:16:23.429Z,50.55
2023-01-21T16:18:54.996Z,37.47
2023-01-21T16:21:25.643Z,39.72
2023-01-21T16:23:56.758Z,39.72
2023-01-21T16:26:27.812Z,80.47
2023-01-21T16:28:56.116Z,534.03
2023-01-21T16:31:24.658Z,367.02
2023-01-21T16:33:53.698Z,247.90
2023-01-21T16:36:21.716Z,120.50
2023-01-21T16:38:49.869Z,44.60
2023-01-21T16:41:27.633Z,234.95
2023-01-21T16:43:59.432Z,358.08
2023-01-21T16:46:32.563Z,277.52
2023-01-21T16:49:04.700Z,167.30
2023-01-21T16:51:35.502Z,49.28
2023-01-21T16:54:26.381Z,93.47
2023-01-21T16:56:59.607Z,159.68
2023-01-21T16:59:30.190Z,112.28
2023-01-21T17:02:00.252Z,176.35
2023-01-21T17:04:30.137Z,106.22
2023-01-21T17:06:58.826Z,79.35
2023-01-21T17:09:30.659Z,172.07
2023-01-21T17:12:04.788Z,129.52
2023-01-21T17:14:34.276Z,156.65
2023-01-21T17:17:07.136Z,133.77
2023-01-21T17:19:37.674Z,167.75
2023-01-21T17:22:14.017Z,162.23
2023-01-21T17:24:47.001Z,163.23
2023-01-21T17:27:21.634Z,166.07
2023-01-21T17:29:49.881Z,171.52
2023-01-21T17:32:27.344Z,130.82
2023-01-21T17:35:11.544Z,129.95
2023-01-21T17:37:44.363Z,136.35
2023-01-21T17:40:26.436Z,109.13
2023-01-21T17:42:56.425Z,111.97
2023-01-21T17:45:30.133Z,162.23
2023-01-21T17:48:10.978Z,169.73
2023-01-21T17:53:21.349Z,91.30
2023-01-21T17:55:58.782Z,94.38
2023-01-21T17:58:48.512Z,112.45
2023-01-21T18:01:17.450Z,57.53
2023-01-21T18:03:45.634Z,64.60
2023-01-21T18:06:18.988Z,119.38
2023-01-21T18:08:47.138Z,164.70
2023-01-21T18:11:16.800Z,92.18
2023-01-21T18:13:46.202Z,120.10
2023-01-21T18:16:14.275Z,100.60
2023-01-21T18:18:42.628Z,104.18
2023-01-21T18:21:19.954Z,109.68
2023-01-21T18:23:48.633Z,213.70
2023-01-21T18:26:23.935Z,156.63
2023-01-21T18:28:53.492Z,201.98
2023-01-21T18:31:22.695Z,209.55
2023-01-21T18:33:50.899Z,85.80
2023-01-21T18:36:18.875Z,74.35
2023-01-21T18:38:46.852Z,73.30
2023-01-21T18:41:14.846Z,102.13
2023-01-21T18:43:42.902Z,137.15
2023-01-21T18:46:14.034Z,98.88
2023-01-21T18:48:42.996Z,99.95
2023-01-21T18:51:11.599Z,148.57
2023-01-21T18:53:39.813Z,91.50
2023-01-21T18:56:13.716Z,113.25
2023-01-21T18:58:41.842Z,187.05
2023-01-21T19:01:21.953Z,266.35
2023-01-21T19:03:53.968Z,160.13
2023-01-21T19:06:24.773Z,125.28
2023-01-21T19:08:53.030Z,134.70
2023-01-21T19:11:21.128Z,116.38
2023-01-21T19:13:49.391Z,116.95
2023-01-21T19:16:19.519Z,139.80
2023-01-21T19:18:47.722Z,111.70
2023-01-21T19:21:17.051Z,104.10
2023-01-21T19:23:45.067Z,102.13
2023-01-21T19:26:14.883Z,104.72
2023-01-21T19:28:43.282Z,97.38
2023-01-21T19:31:11.334Z,97.72
2023-01-21T19:33:41.934Z,96.45
2023-01-21T19:36:16.052Z,92.45
2023-01-21T19:38:49.600Z,90.88
2023-01-21T19:41:17.607Z,98.03
2023-01-21T19:43:46.110Z,94.43
2023-01-21T19:46:14.176Z,109.80
2023-01-21T19:48:42.621Z,85.90
2023-01-21T19:51:10.732Z,93.32
2023-01-21T19:53:38.751Z,101.20
2023-01-21T19:56:11.203Z,103.93
2023-01-21T19:58:42.137Z,99.03
2023-01-21T20:01:10.204Z,92.50
2023-01-21T20:03:40.064Z,98.88
2023-01-21T20:06:13.790Z,84.93
2023-01-21T20:08:42.120Z,107.60
2023-01-21T20:11:11.736Z,111.80
2023-01-21T20:13:39.794Z,113.63
2023-01-21T20:16:15.782Z,118.00
2023-01-21T20:18:46.136Z,149.48
2023-01-21T20:21:14.335Z,120.80
2023-01-21T20:23:43.499Z,153.43
2023-01-21T20:26:18.621Z,170.23
2023-01-21T20:28:51.384Z,126.10
2023-01-21T20:31:19.991Z,151.82
2023-01-21T20:33:48.030Z,142.77
2023-01-21T20:36:20.493Z,152.55
2023-01-21T20:38:48.532Z,93.90
2023-01-21T20:41:18.401Z,85.70
2023-01-21T20:43:46.509Z,123.32
2023-01-21T20:46:18.157Z,198.48
2023-01-21T20:48:46.230Z,183.52
2023-01-21T20:51:14.348Z,131.55
2023-01-21T20:53:44.811Z,168.23
2023-01-21T20:56:21.935Z,147.60
2023-01-21T20:58:50.427Z,118.13
2023-01-21T21:01:20.674Z,124.38
2023-01-21T21:03:49.256Z,248.98
2023-01-21T21:06:19.165Z,252.63
2023-01-21T21:08:47.742Z,238.00
2023-01-21T21:11:16.427Z,97.28
2023-01-21T21:13:46.959Z,191.07
2023-01-21T21:16:19.813Z,294.88
2023-01-21T21:18:48.564Z,285.52
2023-01-21T21:21:17.067Z,238.30
2023-01-21T21:23:46.782Z,237.50
2023-01-21T21:26:22.147Z,180.43
2023-01-21T21:28:55.110Z,236.68
2023-01-21T21:31:24.106Z,85.75
2023-01-21T21:33:52.302Z,76.85
2023-01-21T21:36:23.172Z,171.57
2023-01-21T21:38:52.078Z,118.45
2023-01-21T21:41:39.339Z,120.88
2023-01-21T21:44:10.144Z,91.30
2023-01-21T21:46:56.286Z,93.13
2023-01-21T21:49:24.586Z,84.07
2023-01-21T21:51:52.602Z,115.88
2023-01-21T21:54:20.811Z,138.32
2023-01-21T21:56:48.889Z,82.38
2023-01-21T21:59:18.291Z,135.48
2023-01-21T22:01:46.318Z,86.72
2023-01-21T22:04:14.377Z,70.70
2023-01-21T22:06:42.429Z,77.45
2023-01-21T22:09:10.671Z,79.05
2023-01-21T22:11:38.860Z,73.97
2023-01-21T22:14:06.891Z,68.25
2023-01-21T22:16:36.434Z,70.85
2023-01-21T22:19:04.492Z,74.28
2023-01-21T22:21:34.542Z,66.55
2023-01-21T22:24:02.985Z,68.40
2023-01-21T22:26:31.064Z,65.20
2023-01-21T22:28:59.267Z,65.63
2023-01-21T22:31:28.960Z,61.40
2023-01-21T22:33:59.621Z,66.80
2023-01-21T22:36:30.468Z,61.35
2023-01-21T22:38:58.668Z,62.50
2023-01-21T22:41:26.984Z,65.45
2023-01-21T22:43:55.633Z,60.10
2023-01-21T22:46:25.234Z,59.75
2023-01-21T22:48:54.964Z,60.08
2023-01-21T22:51:24.784Z,56.20
2023-01-21T22:53:54.015Z,57.10
2023-01-21T22:56:31.433Z,52.55
2023-01-21T22:59:08.217Z,58.45
2023-01-21T23:01:36.429Z,54.88
2023-01-21T23:04:04.644Z,54.30
2023-01-21T23:06:36.106Z,54.75
2023-01-21T23:09:06.746Z,56.05
2023-01-21T23:11:37.444Z,56.25
2023-01-21T23:14:05.656Z,53.50
2023-01-21T23:16:33.696Z,58.03
2023-01-21T23:19:01.714Z,51.22
2023-01-21T23:21:29.737Z,56.20
2023-01-21T23:23:59.141Z,58.53
2023-01-21T23:26:27.209Z,57.03
2023-01-21T23:28:56.579Z,60.20
2023-01-21T23:31:25.424Z,57.58
2023-01-21T23:33:55.720Z,61.45
2023-01-21T23:36:24.149Z,61.53
2023-01-21T23:38:52.235Z,64.25
2023-01-21T23:41:21.731Z,63.35
2023-01-21T23:43:49.791Z,62.42
2023-01-21T23:46:19.952Z,65.80
2023-01-21T23:48:48.366Z,64.88
2023-01-21T23:51:17.393Z,69.03
2023-01-21T23:53:45.570Z,68.53
2023-01-21T23:56:15.541Z,68.35
2023-01-21T23:58:45.027Z,66.95
